Latest Weather Observations for Cape Bruny AWS

IDT60901

Issued at 5:01 am EST Tuesday 27 September 2016 (issued every 10 minutes, with the page automatically refreshed every 10 minutes)

About weather observations | Map of Hobart area stations | Latest observations for Hobart area | Other Formats
Station Details ID: 094198 Name: CAPE BRUNY (CAPE BRUNY) Lat: -43.49 Lon: 147.14 Height: 59.7 m
Data from the previous 72 hours. | See also: Recent months at Cape Bruny AWS
Date/Time
EST
Temp
°C
App
Temp
°C
Dew
Point
°C
Rel
Hum
%
Delta-T
°C
Wind Press
QNH
hPa
Press
MSL
hPa
Rain since
9am
mm
Dir  Spd
km/h
Gust
km/h
Spd
kts
Gust
kts
27/05:00am 6.9 2.3 5.7 92 0.5 N 19 20 10 11 1006.9 1006.9 0.2
27/04:30am 6.8 2.5 5.4 91 0.6 N 17 20 9 11 1006.9 1006.9 0.2
27/04:00am 7.3 2.5 5.8 90 0.7 N 20 22 11 12 1006.8 1006.8 0.2
27/03:30am 7.5 3.0 6.0 90 0.7 N 19 20 10 11 1006.8 1006.8 0.2
27/03:00am 7.6 3.1 6.1 90 0.7 N 19 20 10 11 1006.9 1006.9 0.2
27/02:30am 7.7 3.6 6.0 89 0.8 N 17 17 9 9 1007.1 1007.1 0.2
27/02:00am 7.5 3.3 5.8 89 0.8 N 17 20 9 11 1007.3 1007.3 0.2
27/01:30am 7.4 3.2 5.5 88 0.8 N 17 19 9 10 1007.6 1007.6 0.2
27/01:00am 7.2 4.7 4.7 84 1.1 ENE 7 11 4 6 1007.8 1007.8 0.2
27/12:30am 8.3 7.4 6.1 86 1.0 CALM 0 0 0 0 1008.0 1008.0 0.2
27/12:00am 8.1 5.5 5.9 86 1.0 W 9 11 5 6 1008.2 1008.2 0.2
 
Date/Time
EST
Temp
°C
App
Temp
°C
Dew
Point
°C
Rel
Hum
%
Delta-T
°C
Wind Press
QNH
hPa
Press
MSL
hPa
Rain since
9am
mm
Dir  Spd
km/h
Gust
km/h
Spd
kts
Gust
kts
26/11:30pm 7.6 4.8 5.2 85 1.1 WNW 9 11 5 6 1008.4 1008.4 0.2
26/11:00pm 8.7 5.7 6.0 83 1.2 WNW 11 13 6 7 1008.5 1008.5 0.2
26/10:30pm 8.3 7.1 4.7 78 1.6 CALM 0 0 0 0 1008.6 1008.6 0.2
26/10:00pm 8.3 5.6 5.4 82 1.3 NW 9 11 5 6 1008.8 1008.8 0.2
26/09:30pm 9.1 6.1 5.8 80 1.5 WNW 11 15 6 8 1009.0 1009.0 0.2
26/09:00pm 9.0 6.3 5.6 79 1.5 NW 9 13 5 7 1009.0 1009.0 0.2
26/08:30pm 9.2 6.2 6.1 81 1.4 NW 11 15 6 8 1008.9 1008.9 0.2
26/08:00pm 8.6 5.3 4.6 76 1.8 NNE 11 13 6 7 1008.8 1008.8 0.2
26/07:30pm 10.0 7.2 5.2 72 2.2 NNE 9 11 5 6 1008.7 1008.7 0.2
26/07:00pm 10.1 7.7 5.1 71 2.3 NNE 7 9 4 5 1008.6 1008.6 0.2
26/06:30pm 10.7 8.0 5.5 70 2.4 NE 9 11 5 6 1008.4 1008.4 0.2
26/06:00pm 10.7 9.2 4.8 67 2.7 ESE 2 9 1 5 1008.4 1008.4 0.2
26/05:30pm 11.1 7.9 5.0 66 2.8 ESE 11 17 6 9 1008.2 1008.2 0.2
26/05:00pm 12.1 8.9 5.3 63 3.2 SE 11 15 6 8 1007.9 1007.9 0.2
26/04:30pm 13.0 10.2 5.2 59 3.6 SE 9 15 5 8 1007.8 1007.8 0.2
26/04:00pm 13.6 10.3 4.5 54 4.2 SSE 11 15 6 8 1007.6 1007.6 0.2
26/03:30pm 14.4 10.8 5.0 53 4.4 S 13 15 7 8 1007.7 1007.7 0.2
26/03:00pm 13.3 9.6 4.7 56 4.0 S 13 17 7 9 1007.8 1007.8 0.2
26/02:30pm 14.0 10.2 4.0 51 4.6 S 13 17 7 9 1007.8 1007.8 0.2
26/02:00pm 12.9 9.0 3.3 52 4.3 S 13 17 7 9 1007.9 1007.9 0.2
26/01:30pm 13.8 9.9 3.6 50 4.6 SSE 13 17 7 9 1008.0 1008.0 0.2
26/01:00pm 14.5 10.4 4.5 51 4.7 SE 15 24 8 13 1008.2 1008.2 0.2
26/12:30pm 14.9 9.6 2.1 42 5.7 NE 19 24 10 13 1008.5 1008.5 0.2
26/12:00pm 14.2 9.6 1.5 42 5.5 NNE 15 24 8 13 1008.8 1008.8 0.2
26/11:30am 13.5 8.5 1.5 44 5.2 NNE 17 24 9 13 1009.2 1009.2 0.2
26/11:00am 13.3 9.8 1.3 44 5.2 NNE 9 17 5 9 1009.5 1009.5 0.2
26/10:30am 13.3 8.9 2.8 49 4.7 NNE 15 20 8 11 1009.8 1009.8 0.0
26/10:00am 12.5 7.8 3.2 53 4.1 NNE 17 20 9 11 1010.0 1010.0 0.0
26/09:30am 12.0 7.2 4.7 61 3.3 NNE 19 24 10 13 1010.1 1010.1 0.0
26/09:00am 11.4 7.3 4.6 63 3.1 NNE 15 20 8 11 1010.3 1010.4 0.0
26/08:30am 10.7 6.2 4.2 64 2.9 NNE 17 22 9 12 1010.2 1010.3 0.0
26/08:00am 10.3 5.9 4.7 68 2.5 NNE 17 24 9 13 1010.2 1010.3 0.0
26/07:30am 9.2 5.5 4.6 73 2.0 NNE 13 20 7 11 1010.3 1010.4 0.0
26/07:00am 8.2 4.1 4.2 76 1.8 N 15 17 8 9 1010.2 1010.3 0.0
26/06:30am 7.0 2.8 3.6 79 1.4 N 15 19 8 10 1010.2 1010.3 0.0
26/06:00am 6.7 1.9 2.6 75 1.7 N 17 24 9 13 1010.0 1010.0 0.0
26/05:30am 7.9 2.7 2.4 68 2.3 NNW 19 24 10 13 1009.9 1009.9 0.0
26/05:00am 7.0 2.3 2.9 75 1.7 NNW 17 24 9 13 1009.8 1009.8 0.0
26/04:30am 6.9 2.6 3.3 78 1.5 N 15 19 8 10 1009.6 1009.6 0.0
26/04:00am 7.2 2.6 3.8 79 1.5 N 17 20 9 11 1009.5 1009.5 0.0
26/03:30am 6.9 2.8 2.4 73 1.9 N 13 17 7 9 1009.5 1009.5 0.0
26/03:00am 8.5 4.1 2.7 67 2.5 NW 15 20 8 11 1009.3 1009.3 0.0
26/02:30am 8.7 3.5 2.7 66 2.5 NW 19 30 10 16 1009.3 1009.3 0.0
26/02:00am 8.8 3.5 2.8 66 2.6 NW 20 32 11 17 1009.4 1009.4 0.0
26/01:30am 8.4 3.1 2.8 68 2.4 NW 20 30 11 16 1009.6 1009.6 0.0
26/01:13am 9.1 2.0 3.3 67 2.5 WNW 30 48 16 26 1009.6 1009.6 0.0
26/01:00am 9.2 1.8 3.8 69 2.4 WNW 32 44 17 24 1009.5 1009.5 0.0
26/12:30am 9.2 3.3 3.8 69 2.4 NW 24 32 13 17 1009.7 1009.7 0.0
26/12:00am 9.2 2.5 3.8 69 2.4 NW 28 37 15 20 1009.6 1009.6 0.0
 
Date/Time
EST
Temp
°C
App
Temp
°C
Dew
Point
°C
Rel
Hum
%
Delta-T
°C
Wind Press
QNH
hPa
Press
MSL
hPa
Rain since
9am
mm
Dir  Spd
km/h
Gust
km/h
Spd
kts
Gust
kts
25/11:30pm 9.0 2.3 3.8 70 2.3 NW 28 33 15 18 1009.7 1009.7 0.0
25/11:00pm 9.1 2.3 3.3 67 2.5 NW 28 39 15 21 1009.5 1009.5 0.0
25/10:30pm 9.4 2.9 2.5 62 2.9 WNW 26 33 14 18 1009.5 1009.5 0.0
25/10:00pm 9.7 3.3 3.4 65 2.7 WNW 26 39 14 21 1009.3 1009.3 0.0
25/09:30pm 9.5 3.4 2.8 63 2.9 WNW 24 35 13 19 1009.2 1009.2 0.0
25/09:00pm 9.4 2.9 2.5 62 2.9 WNW 26 35 14 19 1009.0 1009.0 0.0
25/08:30pm 9.5 3.4 2.6 62 2.9 WNW 24 35 13 19 1009.0 1009.0 0.0
25/08:00pm 9.8 3.7 2.6 61 3.1 WNW 24 33 13 18 1008.7 1008.7 0.0
25/07:30pm 9.6 3.5 2.5 61 3.0 NW 24 30 13 16 1008.3 1008.3 0.0
25/07:00pm 9.6 3.7 2.0 59 3.2 NW 22 28 12 15 1007.9 1007.9 0.0
25/06:30pm 10.2 3.3 2.6 59 3.3 WNW 28 35 15 19 1007.5 1007.5 0.0
25/06:00pm 10.4 2.5 2.3 57 3.5 W 33 44 18 24 1006.9 1006.9 0.0
25/05:30pm 11.2 3.2 1.7 52 4.0 WNW 33 43 18 23 1006.5 1006.5 0.0
25/05:00pm 12.0 3.9 3.0 54 4.0 WNW 35 44 19 24 1006.1 1006.1 0.0
25/04:30pm 12.5 4.6 4.5 58 3.7 WNW 35 43 19 23 1005.9 1005.9 0.0
25/04:00pm 12.4 5.4 3.9 56 3.8 W 30 39 16 21 1005.4 1005.4 0.0
25/03:30pm 12.9 5.5 5.1 59 3.6 W 33 41 18 22 1005.2 1005.2 0.0
25/03:00pm 13.5 5.6 4.4 54 4.2 W 35 41 19 22 1005.0 1005.0 0.0
25/02:30pm 13.6 5.6 5.5 58 3.8 WNW 37 48 20 26 1004.9 1004.9 0.0
25/02:00pm 12.9 5.7 4.8 58 3.8 W 32 43 17 23 1004.8 1004.8 0.0
25/01:51pm 12.7 4.8 4.2 56 3.9 W 35 54 19 29 1004.6 1004.6 0.0
25/01:30pm 11.9 2.0 4.9 62 3.2 WSW 46 57 25 31 1004.4 1004.4 0.0
25/01:00pm 13.8 6.2 5.7 58 3.9 WSW 35 54 19 29 1004.1 1004.1 0.0
25/12:59pm 13.6 5.9 5.3 57 3.9 WSW 35 54 19 29 1004.1 1004.1 0.0
25/12:30pm 12.2 6.7 3.9 57 3.7 W 22 37 12 20 1004.2 1004.2 0.0
25/12:00pm 12.8 8.9 3.5 53 4.2 W 13 22 7 12 1004.1 1004.1 0.0
25/11:30am 14.8 8.9 5.6 54 4.4 W 26 35 14 19 1004.1 1004.1 0.0
25/11:00am 11.8 5.2 4.3 60 3.4 WSW 28 39 15 21 1003.7 1003.7 0.0
25/10:30am 11.8 5.4 5.0 63 3.1 WSW 28 37 15 20 1003.5 1003.5 0.0
25/10:00am 11.4 4.5 4.6 63 3.1 WSW 30 37 16 20 1003.4 1003.4 0.0
25/09:30am 11.0 3.6 5.1 67 2.7 WSW 33 43 18 23 1003.2 1003.2 0.0
25/09:00am 10.7 2.1 4.4 65 2.8 WSW 39 50 21 27 1002.7 1002.7 0.0
25/08:30am 10.6 2.2 5.8 72 2.2 WSW 39 50 21 27 1002.4 1002.4 0.0
25/08:00am 11.2 2.4 5.7 69 2.6 WSW 41 48 22 26 1001.7 1001.8 0.0
25/07:30am 10.7 1.2 6.5 75 2.0 WSW 46 59 25 32 1001.2 1001.3 0.0
25/07:00am 10.1 0.0 7.2 82 1.4 WSW 50 69 27 37 1000.8 1000.9 0.0
25/06:30am 10.2 1.4 7.4 83 1.3 WSW 43 63 23 34 1000.4 1000.5 0.0
25/06:28am 10.4 2.0 7.5 82 1.4 WSW 41 61 22 33 1000.5 1000.6 0.0
25/06:19am 12.2 5.4 7.9 75 2.1 W 33 52 18 28 1000.4 1000.5 0.0
25/06:14am 12.7 7.2 7.6 71 2.5 WNW 26 46 14 25 1000.1 1000.2 0.0
25/06:00am 11.8 9.1 7.5 75 2.1 N 11 17 6 9 999.6 999.7 0.0
25/05:30am 11.9 9.1 7.0 72 2.4 N 11 15 6 8 999.0 999.1 0.0
25/05:00am 12.4 9.1 6.5 67 2.8 N 13 19 7 10 998.9 999.0 0.0
25/04:30am 12.6 9.0 6.6 67 2.9 N 15 20 8 11 998.7 998.8 0.0
25/04:00am 12.0 9.7 7.3 73 2.3 N 9 13 5 7 998.7 998.8 0.0
25/03:30am 12.3 9.3 7.6 73 2.3 NNE 13 20 7 11 999.0 999.1 0.0
25/03:00am 12.5 9.1 7.8 73 2.3 NNE 15 20 8 11 999.3 999.4 0.0
25/02:30am 12.6 9.3 7.9 73 2.3 NNE 15 22 8 12 999.6 999.7 0.0
25/02:00am 12.9 9.6 8.0 72 2.4 N 15 22 8 12 1000.2 1000.3 0.0
25/01:30am 12.8 10.2 7.7 71 2.5 N 11 17 6 9 1000.3 1000.4 0.0
25/01:00am 12.6 10.0 9.2 80 1.7 NNE 13 20 7 11 1000.6 1000.7 0.0
25/12:30am 13.0 9.7 9.6 80 1.7 N 17 24 9 13 1000.8 1000.9 0.0
25/12:00am 13.2 10.0 10.0 81 1.7 NNE 17 24 9 13 1001.1 1001.2 0.0
 
Date/Time
EST
Temp
°C
App
Temp
°C
Dew
Point
°C
Rel
Hum
%
Delta-T
°C
Wind Press
QNH
hPa
Press
MSL
hPa
Rain since
9am
mm
Dir  Spd
km/h
Gust
km/h
Spd
kts
Gust
kts
24/11:30pm 13.3 10.5 10.1 81 1.7 NNE 15 26 8 14 1001.2 1001.3 0.0
24/11:00pm 13.5 10.8 10.3 81 1.7 NNE 15 22 8 12 1001.4 1001.5 0.0
24/10:30pm 13.3 10.7 10.7 84 1.4 NE 15 26 8 14 1001.7 1001.8 0.0
24/10:00pm 13.3 10.3 10.8 85 1.3 NNE 17 30 9 16 1002.1 1002.1 0.0
24/09:30pm 13.5 10.2 10.9 84 1.4 NNE 19 30 10 16 1002.5 1002.5 0.0
24/09:00pm 13.5 10.6 10.9 84 1.4 NE 17 26 9 14 1002.8 1002.8 0.0
24/08:30pm 13.3 10.3 10.8 85 1.3 NE 17 26 9 14 1003.1 1003.1 0.0
24/08:00pm 13.4 9.5 10.9 85 1.3 NE 22 39 12 21 1003.4 1003.4 0.0
24/07:30pm 13.2 8.9 10.6 84 1.4 NE 24 35 13 19 1003.3 1003.3 0.0
24/07:00pm 13.4 9.1 10.6 83 1.5 NNE 24 33 13 18 1003.5 1003.5 0.0
24/06:30pm 13.6 9.1 10.2 80 1.8 NE 24 33 13 18 1003.2 1003.2 0.0
24/06:00pm 13.9 9.4 10.1 78 2.0 NE 24 32 13 17 1003.4 1003.4 0.0
24/05:30pm 14.5 9.3 10.3 76 2.2 NE 28 37 15 20 1003.5 1003.5 0.0
24/05:00pm 14.9 10.1 10.3 74 2.4 NE 26 37 14 20 1003.5 1003.5 0.0
24/04:30pm 15.3 9.8 10.5 73 2.5 NE 30 44 16 24 1003.6 1003.6 0.0
24/04:00pm 15.4 9.5 10.4 72 2.6 NE 32 46 17 25 1004.0 1004.0 0.0
24/03:30pm 15.3 8.3 10.1 71 2.7 NE 37 50 20 27 1004.3 1004.3 0.0
24/03:05pm 15.5 9.5 10.1 70 2.8 ENE 32 50 17 27 1004.4 1004.4 0.0
24/03:00pm 15.5 9.2 9.8 69 3.0 NE 33 43 18 23 1004.5 1004.5 0.0
24/02:30pm 17.5 12.0 10.4 63 3.8 ENE 30 43 16 23 1004.8 1004.8 0.0
24/02:00pm 17.6 12.5 9.2 58 4.4 NE 26 37 14 20 1005.2 1005.2 0.0
24/01:30pm 18.6 14.2 9.1 54 5.0 NNE 22 32 12 17 1005.6 1005.6 0.0
24/01:00pm 18.4 14.1 9.2 55 4.8 NE 22 33 12 18 1006.2 1006.2 0.0
24/12:30pm 17.7 13.7 9.1 57 4.5 NE 20 32 11 17 1006.7 1006.7 0.0
24/12:00pm 16.0 11.9 8.5 61 3.8 NNE 20 30 11 16 1007.1 1007.1 0.0
24/11:30am 16.4 12.7 9.6 64 3.6 NNE 19 28 10 15 1007.3 1007.3 0.0
24/11:00am 14.8 10.6 8.1 64 3.4 NNE 20 32 11 17 1007.7 1007.7 0.0
24/10:30am 15.5 10.6 8.5 63 3.6 NNE 24 35 13 19 1007.9 1007.9 0.0
24/10:00am 15.1 10.5 8.3 64 3.4 NNE 22 33 12 18 1008.3 1008.3 0.0
24/09:30am 14.0 9.5 8.4 69 2.8 NNE 22 32 12 17 1008.8 1008.8 0.0
24/09:00am 14.2 10.7 8.8 70 2.7 NNE 17 32 9 17 1009.2 1009.2 0.0
24/08:30am 13.5 9.5 9.2 75 2.2 NE 20 26 11 14 1009.3 1009.3 0.0
24/08:00am 11.6 8.1 8.6 82 1.5 NNE 17 26 9 14 1009.7 1009.7 0.0
24/07:30am 11.7 7.8 8.7 82 1.5 NNE 19 28 10 15 1010.0 1010.0 0.0
24/07:00am 11.2 7.0 8.4 83 1.4 NNE 20 30 11 16 1010.2 1010.3 0.0
24/06:30am 10.5 6.3 8.3 86 1.1 NNE 20 28 11 15 1010.3 1010.4 0.0
24/06:00am 10.0 5.7 7.9 87 1.0 N 20 28 11 15 1010.1 1010.1 0.0
24/05:30am 10.0 6.0 8.1 88 0.9 NNE 19 26 10 14 1010.1 1010.1 0.0

Latest Capital City Observations: Canberra | Sydney | Melbourne | Brisbane | Adelaide | Perth | Hobart | Darwin

Other Formats:

Comma delimited format used in spreadsheet applications
http://www.bom.gov.au/fwo/IDT60901/IDT60901.95967.axf

JavaScript Object Notation format (JSON) in row-major order
http://www.bom.gov.au/fwo/IDT60901/IDT60901.95967.json